sensor_id;sensor_type;location;lat;lon;timestamp;P1;durP1;ratioP1;P2;durP2;ratioP2
61025;SDS011;46911;32.650;-16.902;2023-07-08T00:01:55;15.27;;;5.07;;
61025;SDS011;46911;32.650;-16.902;2023-07-08T00:03:56;10.63;;;5.18;;
61025;SDS011;46911;32.650;-16.902;2023-07-08T00:05:57;11.32;;;5.28;;
61025;SDS011;46911;32.650;-16.902;2023-07-08T00:08:00;10.55;;;5.40;;
61025;SDS011;46911;32.650;-16.902;2023-07-08T00:10:01;15.30;;;5.38;;
61025;SDS011;46911;32.650;-16.902;2023-07-08T00:12:04;10.20;;;4.93;;
61025;SDS011;46911;32.650;-16.902;2023-07-08T00:14:13;10.35;;;5.85;;
61025;SDS011;46911;32.650;-16.902;2023-07-08T00:16:15;16.45;;;5.57;;
61025;SDS011;46911;32.650;-16.902;2023-07-08T00:18:18;10.07;;;5.18;;
61025;SDS011;46911;32.650;-16.902;2023-07-08T00:22:22;15.75;;;5.03;;
61025;SDS011;46911;32.650;-16.902;2023-07-08T00:24:25;13.88;;;5.28;;
61025;SDS011;46911;32.650;-16.902;2023-07-08T00:26:26;11.65;;;5.72;;
61025;SDS011;46911;32.650;-16.902;2023-07-08T00:28:33;13.95;;;5.32;;
61025;SDS011;46911;32.650;-16.902;2023-07-08T00:30:34;8.43;;;4.85;;
61025;SDS011;46911;32.650;-16.902;2023-07-08T00:32:35;14.50;;;5.22;;
61025;SDS011;46911;32.650;-16.902;2023-07-08T00:34:42;9.48;;;5.28;;
61025;SDS011;46911;32.650;-16.902;2023-07-08T00:36:44;10.80;;;5.47;;
61025;SDS011;46911;32.650;-16.902;2023-07-08T00:38:48;16.38;;;5.85;;
61025;SDS011;46911;32.650;-16.902;2023-07-08T00:41:37;9.25;;;5.63;;
61025;SDS011;46911;32.650;-16.902;2023-07-08T00:43:23;8.85;;;5.45;;
61025;SDS011;46911;32.650;-16.902;2023-07-08T00:48:23;11.63;;;5.38;;
61025;SDS011;46911;32.650;-16.902;2023-07-08T00:50:28;13.70;;;5.40;;
61025;SDS011;46911;32.650;-16.902;2023-07-08T00:52:29;14.10;;;5.63;;
61025;SDS011;46911;32.650;-16.902;2023-07-08T00:54:33;13.73;;;5.60;;
61025;SDS011;46911;32.650;-16.902;2023-07-08T00:56:35;9.07;;;4.75;;
61025;SDS011;46911;32.650;-16.902;2023-07-08T01:00:52;11.10;;;5.20;;
61025;SDS011;46911;32.650;-16.902;2023-07-08T01:02:57;15.38;;;6.03;;
61025;SDS011;46911;32.650;-16.902;2023-07-08T01:05:02;15.32;;;5.85;;
61025;SDS011;46911;32.650;-16.902;2023-07-08T01:07:12;12.95;;;5.63;;
61025;SDS011;46911;32.650;-16.902;2023-07-08T01:09:21;10.32;;;5.68;;
61025;SDS011;46911;32.650;-16.902;2023-07-08T01:11:24;9.10;;;4.90;;
61025;SDS011;46911;32.650;-16.902;2023-07-08T01:13:25;10.05;;;5.72;;
61025;SDS011;46911;32.650;-16.902;2023-07-08T01:15:31;12.05;;;5.78;;
61025;SDS011;46911;32.650;-16.902;2023-07-08T01:19:40;11.82;;;6.22;;
61025;SDS011;46911;32.650;-16.902;2023-07-08T01:25:57;14.57;;;5.60;;
61025;SDS011;46911;32.650;-16.902;2023-07-08T01:28:03;13.90;;;5.63;;
61025;SDS011;46911;32.650;-16.902;2023-07-08T01:30:06;11.02;;;6.47;;
61025;SDS011;46911;32.650;-16.902;2023-07-08T01:32:12;14.60;;;5.45;;
61025;SDS011;46911;32.650;-16.902;2023-07-08T01:34:18;15.55;;;6.82;;
61025;SDS011;46911;32.650;-16.902;2023-07-08T01:36:22;12.07;;;5.47;;
61025;SDS011;46911;32.650;-16.902;2023-07-08T01:38:24;17.90;;;6.20;;
61025;SDS011;46911;32.650;-16.902;2023-07-08T01:40:31;11.50;;;6.05;;
61025;SDS011;46911;32.650;-16.902;2023-07-08T01:42:34;13.10;;;5.85;;
61025;SDS011;46911;32.650;-16.902;2023-07-08T01:44:35;9.95;;;5.35;;
61025;SDS011;46911;32.650;-16.902;2023-07-08T01:46:40;9.80;;;5.40;;
61025;SDS011;46911;32.650;-16.902;2023-07-08T01:48:41;12.57;;;5.60;;
61025;SDS011;46911;32.650;-16.902;2023-07-08T01:50:54;10.52;;;5.60;;
61025;SDS011;46911;32.650;-16.902;2023-07-08T01:52:59;12.60;;;5.75;;
61025;SDS011;46911;32.650;-16.902;2023-07-08T01:55:06;11.38;;;6.03;;
61025;SDS011;46911;32.650;-16.902;2023-07-08T01:57:10;15.05;;;6.15;;
61025;SDS011;46911;32.650;-16.902;2023-07-08T01:59:11;11.68;;;5.80;;
61025;SDS011;46911;32.650;-16.902;2023-07-08T02:01:14;15.98;;;6.53;;
61025;SDS011;46911;32.650;-16.902;2023-07-08T02:03:16;13.98;;;5.75;;
61025;SDS011;46911;32.650;-16.902;2023-07-08T02:05:17;11.43;;;5.20;;
61025;SDS011;46911;32.650;-16.902;2023-07-08T02:07:18;14.90;;;5.78;;
61025;SDS011;46911;32.650;-16.902;2023-07-08T02:09:19;15.45;;;6.30;;
61025;SDS011;46911;32.650;-16.902;2023-07-08T02:11:23;9.55;;;5.40;;
61025;SDS011;46911;32.650;-16.902;2023-07-08T02:13:25;12.60;;;6.03;;
61025;SDS011;46911;32.650;-16.902;2023-07-08T02:15:26;8.95;;;5.15;;
61025;SDS011;46911;32.650;-16.902;2023-07-08T02:17:29;8.98;;;5.45;;
61025;SDS011;46911;32.650;-16.902;2023-07-08T02:19:33;10.57;;;5.90;;
61025;SDS011;46911;32.650;-16.902;2023-07-08T02:21:33;12.23;;;5.25;;
61025;SDS011;46911;32.650;-16.902;2023-07-08T02:23:34;9.80;;;6.13;;
61025;SDS011;46911;32.650;-16.902;2023-07-08T02:25:36;8.27;;;5.07;;
61025;SDS011;46911;32.650;-16.902;2023-07-08T02:27:37;10.13;;;5.40;;
61025;SDS011;46911;32.650;-16.902;2023-07-08T02:29:39;16.45;;;5.82;;
61025;SDS011;46911;32.650;-16.902;2023-07-08T02:31:40;11.50;;;5.97;;
61025;SDS011;46911;32.650;-16.902;2023-07-08T02:33:41;11.23;;;5.65;;
61025;SDS011;46911;32.650;-16.902;2023-07-08T02:35:45;11.07;;;5.63;;
61025;SDS011;46911;32.650;-16.902;2023-07-08T02:37:46;9.25;;;5.38;;
61025;SDS011;46911;32.650;-16.902;2023-07-08T02:39:47;9.77;;;5.22;;
61025;SDS011;46911;32.650;-16.902;2023-07-08T02:41:48;10.15;;;5.18;;
61025;SDS011;46911;32.650;-16.902;2023-07-08T02:43:51;11.70;;;5.75;;
61025;SDS011;46911;32.650;-16.902;2023-07-08T02:45:52;8.73;;;5.10;;
61025;SDS011;46911;32.650;-16.902;2023-07-08T02:47:53;13.23;;;5.55;;
61025;SDS011;46911;32.650;-16.902;2023-07-08T02:49:54;11.43;;;5.07;;
61025;SDS011;46911;32.650;-16.902;2023-07-08T02:51:55;7.20;;;4.63;;
61025;SDS011;46911;32.650;-16.902;2023-07-08T02:53:58;11.68;;;4.63;;
61025;SDS011;46911;32.650;-16.902;2023-07-08T02:56:02;10.63;;;4.40;;
61025;SDS011;46911;32.650;-16.902;2023-07-08T02:58:05;10.07;;;4.78;;
61025;SDS011;46911;32.650;-16.902;2023-07-08T03:00:06;8.57;;;4.28;;
61025;SDS011;46911;32.650;-16.902;2023-07-08T03:02:10;8.30;;;4.60;;
61025;SDS011;46911;32.650;-16.902;2023-07-08T03:04:11;7.57;;;4.47;;
61025;SDS011;46911;32.650;-16.902;2023-07-08T03:06:19;7.28;;;4.00;;
61025;SDS011;46911;32.650;-16.902;2023-07-08T03:08:26;10.30;;;4.57;;
61025;SDS011;46911;32.650;-16.902;2023-07-08T03:10:28;8.90;;;4.10;;
61025;SDS011;46911;32.650;-16.902;2023-07-08T03:12:31;9.90;;;5.07;;
61025;SDS011;46911;32.650;-16.902;2023-07-08T03:14:32;8.57;;;4.00;;
61025;SDS011;46911;32.650;-16.902;2023-07-08T03:16:36;10.65;;;4.57;;
61025;SDS011;46911;32.650;-16.902;2023-07-08T03:18:36;8.68;;;4.28;;
61025;SDS011;46911;32.650;-16.902;2023-07-08T03:20:47;9.82;;;4.85;;
61025;SDS011;46911;32.650;-16.902;2023-07-08T03:22:51;12.18;;;4.38;;
61025;SDS011;46911;32.650;-16.902;2023-07-08T03:24:52;10.02;;;4.25;;
61025;SDS011;46911;32.650;-16.902;2023-07-08T03:26:56;10.02;;;4.15;;
61025;SDS011;46911;32.650;-16.902;2023-07-08T03:29:08;13.15;;;4.68;;
61025;SDS011;46911;32.650;-16.902;2023-07-08T03:31:16;9.07;;;4.28;;
61025;SDS011;46911;32.650;-16.902;2023-07-08T03:33:19;7.82;;;3.67;;
61025;SDS011;46911;32.650;-16.902;2023-07-08T03:35:22;7.18;;;3.95;;
61025;SDS011;46911;32.650;-16.902;2023-07-08T03:37:23;8.63;;;4.25;;
61025;SDS011;46911;32.650;-16.902;2023-07-08T03:39:27;8.73;;;3.78;;
61025;SDS011;46911;32.650;-16.902;2023-07-08T03:41:31;10.60;;;4.10;;
61025;SDS011;46911;32.650;-16.902;2023-07-08T03:43:32;6.15;;;3.67;;
61025;SDS011;46911;32.650;-16.902;2023-07-08T03:45:36;10.70;;;4.22;;
61025;SDS011;46911;32.650;-16.902;2023-07-08T03:47:37;8.95;;;3.40;;
61025;SDS011;46911;32.650;-16.902;2023-07-08T03:49:39;10.10;;;3.63;;
61025;SDS011;46911;32.650;-16.902;2023-07-08T03:51:40;11.35;;;4.05;;
61025;SDS011;46911;32.650;-16.902;2023-07-08T03:53:42;6.75;;;3.92;;
61025;SDS011;46911;32.650;-16.902;2023-07-08T03:55:44;7.88;;;3.85;;
61025;SDS011;46911;32.650;-16.902;2023-07-08T03:57:45;7.38;;;3.78;;
61025;SDS011;46911;32.650;-16.902;2023-07-08T03:59:47;8.45;;;4.15;;
61025;SDS011;46911;32.650;-16.902;2023-07-08T04:01:50;8.68;;;3.55;;
61025;SDS011;46911;32.650;-16.902;2023-07-08T04:04:00;8.75;;;4.07;;
61025;SDS011;46911;32.650;-16.902;2023-07-08T04:06:01;12.20;;;4.90;;
61025;SDS011;46911;32.650;-16.902;2023-07-08T04:08:02;13.40;;;4.20;;
61025;SDS011;46911;32.650;-16.902;2023-07-08T04:10:03;7.00;;;3.78;;
61025;SDS011;46911;32.650;-16.902;2023-07-08T04:12:09;19.20;;;4.13;;
61025;SDS011;46911;32.650;-16.902;2023-07-08T04:14:15;5.65;;;3.47;;
61025;SDS011;46911;32.650;-16.902;2023-07-08T04:16:17;8.65;;;3.83;;
61025;SDS011;46911;32.650;-16.902;2023-07-08T04:18:22;7.95;;;3.63;;
61025;SDS011;46911;32.650;-16.902;2023-07-08T04:20:25;7.50;;;3.70;;
61025;SDS011;46911;32.650;-16.902;2023-07-08T04:22:26;9.20;;;4.05;;
61025;SDS011;46911;32.650;-16.902;2023-07-08T04:24:29;9.07;;;3.75;;
61025;SDS011;46911;32.650;-16.902;2023-07-08T04:26:30;9.70;;;3.67;;
61025;SDS011;46911;32.650;-16.902;2023-07-08T04:28:38;8.95;;;3.50;;
61025;SDS011;46911;32.650;-16.902;2023-07-08T04:30:42;9.82;;;4.05;;
61025;SDS011;46911;32.650;-16.902;2023-07-08T04:32:43;7.60;;;3.88;;
61025;SDS011;46911;32.650;-16.902;2023-07-08T04:34:46;10.20;;;3.88;;
61025;SDS011;46911;32.650;-16.902;2023-07-08T04:36:47;7.90;;;4.10;;
61025;SDS011;46911;32.650;-16.902;2023-07-08T04:38:48;8.02;;;3.03;;
61025;SDS011;46911;32.650;-16.902;2023-07-08T04:40:49;12.90;;;4.05;;
61025;SDS011;46911;32.650;-16.902;2023-07-08T04:42:51;11.02;;;4.22;;
61025;SDS011;46911;32.650;-16.902;2023-07-08T04:44:54;6.78;;;3.20;;
61025;SDS011;46911;32.650;-16.902;2023-07-08T04:46:56;8.40;;;3.47;;
61025;SDS011;46911;32.650;-16.902;2023-07-08T04:49:00;10.00;;;4.05;;
61025;SDS011;46911;32.650;-16.902;2023-07-08T04:51:03;11.10;;;4.10;;
61025;SDS011;46911;32.650;-16.902;2023-07-08T04:53:08;5.72;;;3.40;;
61025;SDS011;46911;32.650;-16.902;2023-07-08T04:55:10;8.68;;;4.13;;
61025;SDS011;46911;32.650;-16.902;2023-07-08T04:57:13;9.05;;;3.50;;
61025;SDS011;46911;32.650;-16.902;2023-07-08T04:59:17;14.95;;;4.20;;
61025;SDS011;46911;32.650;-16.902;2023-07-08T05:01:21;7.03;;;3.60;;
61025;SDS011;46911;32.650;-16.902;2023-07-08T05:03:24;8.15;;;3.72;;
61025;SDS011;46911;32.650;-16.902;2023-07-08T05:05:25;9.00;;;3.42;;
61025;SDS011;46911;32.650;-16.902;2023-07-08T05:07:29;13.70;;;4.10;;
61025;SDS011;46911;32.650;-16.902;2023-07-08T05:09:32;8.07;;;3.40;;
61025;SDS011;46911;32.650;-16.902;2023-07-08T05:11:35;5.10;;;3.25;;
61025;SDS011;46911;32.650;-16.902;2023-07-08T05:13:36;6.97;;;3.38;;
61025;SDS011;46911;32.650;-16.902;2023-07-08T05:15:42;8.85;;;3.22;;
61025;SDS011;46911;32.650;-16.902;2023-07-08T05:17:43;14.63;;;3.33;;
61025;SDS011;46911;32.650;-16.902;2023-07-08T05:19:44;11.73;;;3.35;;
61025;SDS011;46911;32.650;-16.902;2023-07-08T05:21:46;6.47;;;3.50;;
61025;SDS011;46911;32.650;-16.902;2023-07-08T05:23:51;9.98;;;4.20;;
61025;SDS011;46911;32.650;-16.902;2023-07-08T05:25:52;6.15;;;3.33;;
61025;SDS011;46911;32.650;-16.902;2023-07-08T05:27:54;13.52;;;3.85;;
61025;SDS011;46911;32.650;-16.902;2023-07-08T05:29:58;14.73;;;3.92;;
61025;SDS011;46911;32.650;-16.902;2023-07-08T05:32:00;7.47;;;3.25;;
61025;SDS011;46911;32.650;-16.902;2023-07-08T05:34:00;10.00;;;3.78;;
61025;SDS011;46911;32.650;-16.902;2023-07-08T05:36:04;6.80;;;2.90;;
61025;SDS011;46911;32.650;-16.902;2023-07-08T05:38:07;12.15;;;3.60;;
61025;SDS011;46911;32.650;-16.902;2023-07-08T05:40:13;8.93;;;3.30;;
61025;SDS011;46911;32.650;-16.902;2023-07-08T05:42:14;10.95;;;3.78;;
61025;SDS011;46911;32.650;-16.902;2023-07-08T05:44:18;10.65;;;3.55;;
61025;SDS011;46911;32.650;-16.902;2023-07-08T05:46:19;9.75;;;3.08;;
61025;SDS011;46911;32.650;-16.902;2023-07-08T05:48:20;6.80;;;3.22;;
61025;SDS011;46911;32.650;-16.902;2023-07-08T05:50:23;12.43;;;3.38;;
61025;SDS011;46911;32.650;-16.902;2023-07-08T05:52:24;7.05;;;3.53;;
61025;SDS011;46911;32.650;-16.902;2023-07-08T05:54:27;11.63;;;3.55;;
61025;SDS011;46911;32.650;-16.902;2023-07-08T05:56:30;10.23;;;3.25;;
61025;SDS011;46911;32.650;-16.902;2023-07-08T05:58:31;9.18;;;2.88;;
61025;SDS011;46911;32.650;-16.902;2023-07-08T06:00:32;11.45;;;3.15;;
61025;SDS011;46911;32.650;-16.902;2023-07-08T06:02:33;12.60;;;3.83;;
61025;SDS011;46911;32.650;-16.902;2023-07-08T06:04:34;16.08;;;3.85;;
61025;SDS011;46911;32.650;-16.902;2023-07-08T06:06:35;14.43;;;4.30;;
61025;SDS011;46911;32.650;-16.902;2023-07-08T06:08:38;10.00;;;3.70;;
61025;SDS011;46911;32.650;-16.902;2023-07-08T06:10:43;21.10;;;3.60;;
61025;SDS011;46911;32.650;-16.902;2023-07-08T06:12:49;6.70;;;3.30;;
61025;SDS011;46911;32.650;-16.902;2023-07-08T06:14:51;13.98;;;4.38;;
61025;SDS011;46911;32.650;-16.902;2023-07-08T06:16:52;8.90;;;3.13;;
61025;SDS011;46911;32.650;-16.902;2023-07-08T06:18:55;8.73;;;3.25;;
61025;SDS011;46911;32.650;-16.902;2023-07-08T06:20:57;7.57;;;3.38;;
61025;SDS011;46911;32.650;-16.902;2023-07-08T06:22:58;9.02;;;3.47;;
61025;SDS011;46911;32.650;-16.902;2023-07-08T06:25:02;6.97;;;3.00;;
61025;SDS011;46911;32.650;-16.902;2023-07-08T06:27:05;7.85;;;3.20;;
61025;SDS011;46911;32.650;-16.902;2023-07-08T06:29:12;8.60;;;3.50;;
61025;SDS011;46911;32.650;-16.902;2023-07-08T06:31:13;9.35;;;2.97;;
61025;SDS011;46911;32.650;-16.902;2023-07-08T06:33:16;5.90;;;2.95;;
61025;SDS011;46911;32.650;-16.902;2023-07-08T06:35:17;6.10;;;2.97;;
61025;SDS011;46911;32.650;-16.902;2023-07-08T06:37:21;14.23;;;3.72;;
61025;SDS011;46911;32.650;-16.902;2023-07-08T06:39:24;16.45;;;3.35;;
61025;SDS011;46911;32.650;-16.902;2023-07-08T06:41:25;7.32;;;3.53;;
61025;SDS011;46911;32.650;-16.902;2023-07-08T06:43:31;10.55;;;4.07;;
61025;SDS011;46911;32.650;-16.902;2023-07-08T06:45:53;9.85;;;3.80;;
61025;SDS011;46911;32.650;-16.902;2023-07-08T06:47:54;7.07;;;3.30;;
61025;SDS011;46911;32.650;-16.902;2023-07-08T06:50:01;8.02;;;3.30;;
61025;SDS011;46911;32.650;-16.902;2023-07-08T06:52:08;11.00;;;3.30;;
61025;SDS011;46911;32.650;-16.902;2023-07-08T06:54:16;9.30;;;3.60;;
61025;SDS011;46911;32.650;-16.902;2023-07-08T06:56:17;24.20;;;3.85;;
61025;SDS011;46911;32.650;-16.902;2023-07-08T06:58:18;7.47;;;3.10;;
61025;SDS011;46911;32.650;-16.902;2023-07-08T07:00:19;8.63;;;3.20;;
61025;SDS011;46911;32.650;-16.902;2023-07-08T07:02:20;10.55;;;4.18;;
61025;SDS011;46911;32.650;-16.902;2023-07-08T07:04:21;10.18;;;3.88;;
61025;SDS011;46911;32.650;-16.902;2023-07-08T07:06:22;9.57;;;3.47;;
61025;SDS011;46911;32.650;-16.902;2023-07-08T07:08:23;9.77;;;3.47;;
61025;SDS011;46911;32.650;-16.902;2023-07-08T07:10:26;8.00;;;3.35;;
61025;SDS011;46911;32.650;-16.902;2023-07-08T07:12:29;10.40;;;3.88;;
61025;SDS011;46911;32.650;-16.902;2023-07-08T07:14:30;9.15;;;3.75;;
61025;SDS011;46911;32.650;-16.902;2023-07-08T07:16:31;12.52;;;3.60;;
61025;SDS011;46911;32.650;-16.902;2023-07-08T07:18:34;14.43;;;3.92;;
61025;SDS011;46911;32.650;-16.902;2023-07-08T07:20:36;12.18;;;3.17;;
61025;SDS011;46911;32.650;-16.902;2023-07-08T07:22:40;9.75;;;3.38;;
61025;SDS011;46911;32.650;-16.902;2023-07-08T07:24:43;10.30;;;3.38;;
61025;SDS011;46911;32.650;-16.902;2023-07-08T07:26:47;7.70;;;3.53;;
61025;SDS011;46911;32.650;-16.902;2023-07-08T07:28:48;16.23;;;3.63;;
61025;SDS011;46911;32.650;-16.902;2023-07-08T07:30:55;9.50;;;3.15;;
61025;SDS011;46911;32.650;-16.902;2023-07-08T07:33:01;11.88;;;4.05;;
61025;SDS011;46911;32.650;-16.902;2023-07-08T07:35:05;11.52;;;3.20;;
61025;SDS011;46911;32.650;-16.902;2023-07-08T07:37:10;6.13;;;2.72;;
61025;SDS011;46911;32.650;-16.902;2023-07-08T07:39:12;15.27;;;3.08;;
61025;SDS011;46911;32.650;-16.902;2023-07-08T07:41:16;10.35;;;3.08;;
61025;SDS011;46911;32.650;-16.902;2023-07-08T07:43:21;9.30;;;3.63;;
61025;SDS011;46911;32.650;-16.902;2023-07-08T07:45:25;10.65;;;3.88;;
61025;SDS011;46911;32.650;-16.902;2023-07-08T07:47:28;10.80;;;3.50;;
61025;SDS011;46911;32.650;-16.902;2023-07-08T07:49:29;7.47;;;3.25;;
61025;SDS011;46911;32.650;-16.902;2023-07-08T07:51:32;16.15;;;3.47;;
61025;SDS011;46911;32.650;-16.902;2023-07-08T07:53:33;14.77;;;3.20;;
61025;SDS011;46911;32.650;-16.902;2023-07-08T07:55:36;11.13;;;3.70;;
61025;SDS011;46911;32.650;-16.902;2023-07-08T07:57:42;8.15;;;3.00;;
61025;SDS011;46911;32.650;-16.902;2023-07-08T07:59:46;8.20;;;3.47;;
61025;SDS011;46911;32.650;-16.902;2023-07-08T08:01:49;10.65;;;3.42;;
61025;SDS011;46911;32.650;-16.902;2023-07-08T08:03:52;10.00;;;3.55;;
61025;SDS011;46911;32.650;-16.902;2023-07-08T08:06:01;10.18;;;3.80;;
61025;SDS011;46911;32.650;-16.902;2023-07-08T08:08:02;12.00;;;3.75;;
61025;SDS011;46911;32.650;-16.902;2023-07-08T08:10:07;6.63;;;3.45;;
61025;SDS011;46911;32.650;-16.902;2023-07-08T08:12:10;12.93;;;3.13;;
61025;SDS011;46911;32.650;-16.902;2023-07-08T08:14:11;15.90;;;3.75;;
61025;SDS011;46911;32.650;-16.902;2023-07-08T08:16:12;14.48;;;3.60;;
61025;SDS011;46911;32.650;-16.902;2023-07-08T08:18:15;7.35;;;3.45;;
61025;SDS011;46911;32.650;-16.902;2023-07-08T08:20:16;18.45;;;3.65;;
61025;SDS011;46911;32.650;-16.902;2023-07-08T08:22:17;7.00;;;3.58;;
61025;SDS011;46911;32.650;-16.902;2023-07-08T08:24:18;7.88;;;3.60;;
61025;SDS011;46911;32.650;-16.902;2023-07-08T08:26:23;8.13;;;4.50;;
61025;SDS011;46911;32.650;-16.902;2023-07-08T08:28:24;9.45;;;3.55;;
61025;SDS011;46911;32.650;-16.902;2023-07-08T08:30:25;7.90;;;3.30;;
61025;SDS011;46911;32.650;-16.902;2023-07-08T08:32:26;9.07;;;3.72;;
61025;SDS011;46911;32.650;-16.902;2023-07-08T08:34:30;7.90;;;3.75;;
61025;SDS011;46911;32.650;-16.902;2023-07-08T08:36:34;11.27;;;3.80;;
61025;SDS011;46911;32.650;-16.902;2023-07-08T08:38:35;9.82;;;4.43;;
61025;SDS011;46911;32.650;-16.902;2023-07-08T08:40:36;10.38;;;3.65;;
61025;SDS011;46911;32.650;-16.902;2023-07-08T08:44:40;11.23;;;3.78;;
61025;SDS011;46911;32.650;-16.902;2023-07-08T08:46:49;17.40;;;4.05;;
61025;SDS011;46911;32.650;-16.902;2023-07-08T08:49:15;10.70;;;4.03;;
61025;SDS011;46911;32.650;-16.902;2023-07-08T08:51:26;11.68;;;4.30;;
61025;SDS011;46911;32.650;-16.902;2023-07-08T08:53:29;8.65;;;4.20;;
61025;SDS011;46911;32.650;-16.902;2023-07-08T08:55:30;12.00;;;4.35;;
61025;SDS011;46911;32.650;-16.902;2023-07-08T08:57:40;10.98;;;3.97;;
61025;SDS011;46911;32.650;-16.902;2023-07-08T08:59:53;18.75;;;4.32;;
61025;SDS011;46911;32.650;-16.902;2023-07-08T09:01:55;13.10;;;4.45;;
61025;SDS011;46911;32.650;-16.902;2023-07-08T09:04:04;17.55;;;4.70;;
61025;SDS011;46911;32.650;-16.902;2023-07-08T09:06:23;11.57;;;3.97;;
61025;SDS011;46911;32.650;-16.902;2023-07-08T09:08:32;12.73;;;3.53;;
61025;SDS011;46911;32.650;-16.902;2023-07-08T09:10:43;11.60;;;4.53;;
61025;SDS011;46911;32.650;-16.902;2023-07-08T09:12:48;10.27;;;3.65;;
61025;SDS011;46911;32.650;-16.902;2023-07-08T09:14:52;10.00;;;3.83;;
61025;SDS011;46911;32.650;-16.902;2023-07-08T09:16:56;14.32;;;3.83;;
61025;SDS011;46911;32.650;-16.902;2023-07-08T09:19:03;10.75;;;3.97;;
61025;SDS011;46911;32.650;-16.902;2023-07-08T09:21:21;8.52;;;3.88;;
61025;SDS011;46911;32.650;-16.902;2023-07-08T09:23:28;9.65;;;3.67;;
61025;SDS011;46911;32.650;-16.902;2023-07-08T09:25:35;13.13;;;4.22;;
61025;SDS011;46911;32.650;-16.902;2023-07-08T09:27:43;12.10;;;4.47;;
61025;SDS011;46911;32.650;-16.902;2023-07-08T09:29:46;11.90;;;4.25;;
61025;SDS011;46911;32.650;-16.902;2023-07-08T09:31:47;11.73;;;4.30;;
61025;SDS011;46911;32.650;-16.902;2023-07-08T09:33:50;10.13;;;3.92;;
61025;SDS011;46911;32.650;-16.902;2023-07-08T09:35:54;10.52;;;3.70;;
61025;SDS011;46911;32.650;-16.902;2023-07-08T09:38:02;10.80;;;3.55;;
61025;SDS011;46911;32.650;-16.902;2023-07-08T09:40:17;7.65;;;2.97;;
61025;SDS011;46911;32.650;-16.902;2023-07-08T09:42:21;14.27;;;3.58;;
61025;SDS011;46911;32.650;-16.902;2023-07-08T09:44:26;13.57;;;3.78;;
61025;SDS011;46911;32.650;-16.902;2023-07-08T09:46:34;13.63;;;4.85;;
61025;SDS011;46911;32.650;-16.902;2023-07-08T09:48:37;12.77;;;3.50;;
61025;SDS011;46911;32.650;-16.902;2023-07-08T09:50:42;16.08;;;4.30;;
61025;SDS011;46911;32.650;-16.902;2023-07-08T09:52:44;9.05;;;3.47;;
61025;SDS011;46911;32.650;-16.902;2023-07-08T09:54:49;10.70;;;3.53;;
61025;SDS011;46911;32.650;-16.902;2023-07-08T09:56:52;11.93;;;4.18;;
61025;SDS011;46911;32.650;-16.902;2023-07-08T09:59:13;9.77;;;3.15;;
61025;SDS011;46911;32.650;-16.902;2023-07-08T10:01:20;12.55;;;4.35;;
61025;SDS011;46911;32.650;-16.902;2023-07-08T10:03:30;10.73;;;4.43;;
61025;SDS011;46911;32.650;-16.902;2023-07-08T10:05:40;9.73;;;4.07;;
61025;SDS011;46911;32.650;-16.902;2023-07-08T10:07:43;8.05;;;3.25;;
61025;SDS011;46911;32.650;-16.902;2023-07-08T10:09:53;11.30;;;4.70;;
61025;SDS011;46911;32.650;-16.902;2023-07-08T10:12:02;13.27;;;4.75;;
61025;SDS011;46911;32.650;-16.902;2023-07-08T10:14:15;9.25;;;3.58;;
61025;SDS011;46911;32.650;-16.902;2023-07-08T10:16:31;12.07;;;3.65;;
61025;SDS011;46911;32.650;-16.902;2023-07-08T10:18:37;12.27;;;3.63;;
61025;SDS011;46911;32.650;-16.902;2023-07-08T10:20:46;17.30;;;3.42;;
61025;SDS011;46911;32.650;-16.902;2023-07-08T10:23:34;12.02;;;3.53;;
61025;SDS011;46911;32.650;-16.902;2023-07-08T10:32:12;20.42;;;4.65;;
61025;SDS011;46911;32.650;-16.902;2023-07-08T10:39:16;12.77;;;3.55;;
61025;SDS011;46911;32.650;-16.902;2023-07-08T10:41:44;7.68;;;3.53;;
61025;SDS011;46911;32.650;-16.902;2023-07-08T10:44:41;11.32;;;3.47;;
61025;SDS011;46911;32.650;-16.902;2023-07-08T10:46:27;10.13;;;3.55;;
61025;SDS011;46911;32.650;-16.902;2023-07-08T10:48:35;15.05;;;4.05;;
61025;SDS011;46911;32.650;-16.902;2023-07-08T10:51:03;8.52;;;3.40;;
61025;SDS011;46911;32.650;-16.902;2023-07-08T10:53:36;16.08;;;3.28;;
61025;SDS011;46911;32.650;-16.902;2023-07-08T11:00:38;7.82;;;3.22;;
61025;SDS011;46911;32.650;-16.902;2023-07-08T11:07:42;11.98;;;3.97;;
61025;SDS011;46911;32.650;-16.902;2023-07-08T11:10:02;12.77;;;3.72;;
61025;SDS011;46911;32.650;-16.902;2023-07-08T11:14:30;13.55;;;4.10;;
61025;SDS011;46911;32.650;-16.902;2023-07-08T11:18:58;11.30;;;2.97;;
61025;SDS011;46911;32.650;-16.902;2023-07-08T11:21:09;8.43;;;3.10;;
61025;SDS011;46911;32.650;-16.902;2023-07-08T11:25:44;11.88;;;3.25;;
61025;SDS011;46911;32.650;-16.902;2023-07-08T11:27:50;16.95;;;3.67;;
61025;SDS011;46911;32.650;-16.902;2023-07-08T11:30:12;15.30;;;3.50;;
61025;SDS011;46911;32.650;-16.902;2023-07-08T11:32:16;9.52;;;3.60;;
61025;SDS011;46911;32.650;-16.902;2023-07-08T11:34:19;11.82;;;3.33;;
61025;SDS011;46911;32.650;-16.902;2023-07-08T11:36:22;14.02;;;3.67;;
61025;SDS011;46911;32.650;-16.902;2023-07-08T11:38:24;20.85;;;4.10;;
61025;SDS011;46911;32.650;-16.902;2023-07-08T11:40:26;9.02;;;3.53;;
61025;SDS011;46911;32.650;-16.902;2023-07-08T11:44:36;14.80;;;4.10;;
61025;SDS011;46911;32.650;-16.902;2023-07-08T11:46:53;12.93;;;3.63;;
61025;SDS011;46911;32.650;-16.902;2023-07-08T11:49:12;10.65;;;4.15;;
61025;SDS011;46911;32.650;-16.902;2023-07-08T11:51:26;9.93;;;4.03;;
61025;SDS011;46911;32.650;-16.902;2023-07-08T11:53:46;15.82;;;5.07;;
61025;SDS011;46911;32.650;-16.902;2023-07-08T11:55:56;11.50;;;3.47;;
61025;SDS011;46911;32.650;-16.902;2023-07-08T11:57:59;16.02;;;3.85;;
61025;SDS011;46911;32.650;-16.902;2023-07-08T12:02:19;16.85;;;4.78;;
61025;SDS011;46911;32.650;-16.902;2023-07-08T12:04:30;13.48;;;4.43;;
61025;SDS011;46911;32.650;-16.902;2023-07-08T12:08:36;20.83;;;5.10;;
61025;SDS011;46911;32.650;-16.902;2023-07-08T12:11:01;14.95;;;4.68;;
61025;SDS011;46911;32.650;-16.902;2023-07-08T12:13:02;16.38;;;5.68;;
61025;SDS011;46911;32.650;-16.902;2023-07-08T12:15:17;17.05;;;6.22;;
61025;SDS011;46911;32.650;-16.902;2023-07-08T12:17:23;21.73;;;4.70;;
61025;SDS011;46911;32.650;-16.902;2023-07-08T12:19:27;15.68;;;5.13;;
61025;SDS011;46911;32.650;-16.902;2023-07-08T12:21:34;18.67;;;5.32;;
61025;SDS011;46911;32.650;-16.902;2023-07-08T12:23:43;29.60;;;5.13;;
61025;SDS011;46911;32.650;-16.902;2023-07-08T12:25:47;15.88;;;6.05;;
61025;SDS011;46911;32.650;-16.902;2023-07-08T12:27:49;11.68;;;3.72;;
61025;SDS011;46911;32.650;-16.902;2023-07-08T12:29:55;15.35;;;6.07;;
61025;SDS011;46911;32.650;-16.902;2023-07-08T12:31:58;15.85;;;4.05;;
61025;SDS011;46911;32.650;-16.902;2023-07-08T12:33:59;17.73;;;6.97;;
61025;SDS011;46911;32.650;-16.902;2023-07-08T12:36:00;20.73;;;5.82;;
61025;SDS011;46911;32.650;-16.902;2023-07-08T12:38:23;15.27;;;5.28;;
61025;SDS011;46911;32.650;-16.902;2023-07-08T12:40:38;8.70;;;4.03;;
61025;SDS011;46911;32.650;-16.902;2023-07-08T12:42:41;12.98;;;4.60;;
61025;SDS011;46911;32.650;-16.902;2023-07-08T12:44:42;16.52;;;4.72;;
61025;SDS011;46911;32.650;-16.902;2023-07-08T12:46:46;10.63;;;4.55;;
61025;SDS011;46911;32.650;-16.902;2023-07-08T12:48:52;16.92;;;4.68;;
61025;SDS011;46911;32.650;-16.902;2023-07-08T12:50:53;10.73;;;4.57;;
61025;SDS011;46911;32.650;-16.902;2023-07-08T12:52:59;19.73;;;5.47;;
61025;SDS011;46911;32.650;-16.902;2023-07-08T12:55:05;16.20;;;4.32;;